createdAt,value
2022-12-26T00:02:00.561Z,48.00
2022-12-26T00:04:50.994Z,46.03
2022-12-26T00:07:15.111Z,47.80
2022-12-26T00:09:42.417Z,44.87
2022-12-26T00:12:09.322Z,47.70
2022-12-26T00:14:40.358Z,46.47
2022-12-26T00:17:08.705Z,48.40
2022-12-26T00:19:35.989Z,46.73
2022-12-26T00:22:03.039Z,49.77
2022-12-26T00:24:30.098Z,46.73
2022-12-26T00:26:56.982Z,43.90
2022-12-26T00:29:30.587Z,48.23
2022-12-26T00:31:57.614Z,51.03
2022-12-26T00:34:24.832Z,47.70
2022-12-26T00:36:52.628Z,47.93
2022-12-26T00:39:19.820Z,47.10
2022-12-26T00:41:46.834Z,45.83
2022-12-26T00:44:14.414Z,51.60
2022-12-26T00:46:41.517Z,46.67
2022-12-26T00:49:08.715Z,47.17
2022-12-26T00:51:35.761Z,47.97
2022-12-26T00:54:02.913Z,47.20
2022-12-26T00:56:30.068Z,49.33
2022-12-26T00:58:57.150Z,49.63
2022-12-26T01:01:24.722Z,46.30
2022-12-26T01:03:52.414Z,49.97
2022-12-26T01:06:19.623Z,42.73
2022-12-26T01:08:46.642Z,41.17
2022-12-26T01:11:16.203Z,48.43
2022-12-26T01:13:43.639Z,45.47
2022-12-26T01:16:11.089Z,45.93
2022-12-26T01:18:38.230Z,42.63
2022-12-26T01:21:11.436Z,42.80
2022-12-26T01:23:42.071Z,43.97
2022-12-26T01:26:19.036Z,41.67
2022-12-26T01:29:08.513Z,44.87
2022-12-26T01:31:38.641Z,42.33
2022-12-26T01:34:09.778Z,46.00
2022-12-26T01:36:37.406Z,43.30
2022-12-26T01:39:04.554Z,44.60
2022-12-26T01:41:39.528Z,49.33
2022-12-26T01:44:49.833Z,44.30
2022-12-26T01:47:24.138Z,47.60
2022-12-26T01:49:58.115Z,46.20
2022-12-26T01:52:36.585Z,41.77
2022-12-26T01:55:12.592Z,46.30
2022-12-26T01:57:45.138Z,48.17
2022-12-26T02:00:18.773Z,47.53
2022-12-26T02:03:08.238Z,47.20
2022-12-26T02:05:35.763Z,49.20
2022-12-26T02:08:27.630Z,54.57
2022-12-26T02:11:27.821Z,52.20
2022-12-26T02:13:56.822Z,50.93
2022-12-26T02:16:25.875Z,52.97
2022-12-26T02:18:54.049Z,51.40
2022-12-26T02:21:49.186Z,54.43
2022-12-26T02:24:45.519Z,52.87
2022-12-26T02:27:50.199Z,52.03
2022-12-26T02:30:36.300Z,55.23
2022-12-26T02:33:36.129Z,51.93
2022-12-26T02:36:15.137Z,56.33
2022-12-26T02:38:48.459Z,56.63
2022-12-26T02:41:24.443Z,57.63
2022-12-26T02:44:36.349Z,55.80
2022-12-26T02:47:24.366Z,52.80
2022-12-26T02:50:27.094Z,57.80
2022-12-26T02:53:39.110Z,57.50
2022-12-26T02:56:55.362Z,56.87
2022-12-26T03:00:10.760Z,56.70
2022-12-26T03:03:40.336Z,56.20
2022-12-26T03:06:38.479Z,60.30
2022-12-26T03:09:38.871Z,59.73
2022-12-26T03:12:38.972Z,57.77
2022-12-26T03:15:12.221Z,57.10
2022-12-26T03:17:46.048Z,53.27
2022-12-26T03:20:24.389Z,56.47
2022-12-26T03:22:54.566Z,61.20
2022-12-26T03:25:51.024Z,54.50
2022-12-26T03:28:18.116Z,48.33
2022-12-26T03:30:51.295Z,50.10
2022-12-26T03:33:46.976Z,52.27
2022-12-26T03:36:34.991Z,51.17
2022-12-26T03:39:47.455Z,53.50
2022-12-26T03:42:48.576Z,49.53
2022-12-26T03:45:45.219Z,49.53
2022-12-26T03:48:51.274Z,45.87
2022-12-26T03:51:51.185Z,49.03
2022-12-26T03:54:54.427Z,46.07
2022-12-26T03:57:43.294Z,44.50
2022-12-26T04:00:31.637Z,49.77
2022-12-26T04:03:26.783Z,43.47
2022-12-26T04:06:13.641Z,48.17
2022-12-26T04:09:22.665Z,45.77
2022-12-26T04:12:07.999Z,49.00
2022-12-26T04:15:13.083Z,44.00
2022-12-26T04:18:23.096Z,50.33
2022-12-26T04:21:08.993Z,50.70
2022-12-26T04:24:05.803Z,52.57
2022-12-26T04:27:01.885Z,55.07
2022-12-26T04:29:48.364Z,51.47
2022-12-26T04:33:04.665Z,51.30
2022-12-26T04:36:10.526Z,47.27
2022-12-26T04:39:09.629Z,49.17
2022-12-26T04:41:57.672Z,48.97
2022-12-26T04:44:27.896Z,51.07
2022-12-26T04:46:56.888Z,50.10
2022-12-26T04:49:42.674Z,49.53
2022-12-26T04:52:12.983Z,46.10
2022-12-26T04:54:40.689Z,46.90
2022-12-26T04:57:08.393Z,48.80
2022-12-26T04:59:35.434Z,45.83
2022-12-26T05:02:20.977Z,46.40
2022-12-26T05:05:09.313Z,41.23
2022-12-26T05:07:56.217Z,47.47
2022-12-26T05:10:28.381Z,44.27
2022-12-26T05:12:55.726Z,42.27
2022-12-26T05:15:23.614Z,41.17
2022-12-26T05:18:09.049Z,39.50
2022-12-26T05:21:14.667Z,40.17
2022-12-26T05:24:00.382Z,42.43
2022-12-26T05:26:46.109Z,41.30
2022-12-26T05:29:13.245Z,38.27
2022-12-26T05:31:40.386Z,39.27
2022-12-26T05:34:20.868Z,40.33
2022-12-26T05:36:50.380Z,42.40
2022-12-26T05:39:17.656Z,37.57
2022-12-26T05:41:44.929Z,37.43
2022-12-26T05:44:12.559Z,40.97
2022-12-26T05:46:40.086Z,40.77
2022-12-26T05:49:07.229Z,36.33
2022-12-26T05:51:34.543Z,37.30
2022-12-26T05:54:01.730Z,33.57
2022-12-26T05:56:28.870Z,34.87
2022-12-26T05:59:00.484Z,32.67
2022-12-26T06:01:29.251Z,37.20
2022-12-26T06:04:00.516Z,32.63
2022-12-26T06:06:28.175Z,30.53
2022-12-26T06:08:57.349Z,32.47
2022-12-26T06:11:26.918Z,29.47
2022-12-26T06:13:55.752Z,31.13
2022-12-26T06:16:23.444Z,29.00
2022-12-26T06:18:50.938Z,28.50
2022-12-26T06:21:19.945Z,27.57
2022-12-26T06:23:49.012Z,28.17
2022-12-26T06:26:17.256Z,25.93
2022-12-26T06:28:45.109Z,25.03
2022-12-26T06:31:21.583Z,26.80
2022-12-26T06:33:51.536Z,26.77
2022-12-26T06:36:21.530Z,27.90
2022-12-26T06:38:48.790Z,25.13
2022-12-26T06:41:18.689Z,25.20
2022-12-26T06:43:46.247Z,25.03
2022-12-26T06:46:16.869Z,24.17
2022-12-26T06:48:46.387Z,26.77
2022-12-26T06:51:16.818Z,27.13
2022-12-26T06:53:44.220Z,25.27
2022-12-26T06:56:15.658Z,23.87
2022-12-26T06:58:45.267Z,28.00
2022-12-26T07:01:20.768Z,27.00
2022-12-26T07:03:51.973Z,29.47
2022-12-26T07:06:31.256Z,26.63
2022-12-26T07:09:06.201Z,26.93
2022-12-26T07:11:37.004Z,27.03
2022-12-26T07:14:05.323Z,28.77
2022-12-26T07:16:37.201Z,24.23
2022-12-26T07:19:05.110Z,25.40
2022-12-26T07:21:39.801Z,27.27
2022-12-26T07:24:19.140Z,25.40
2022-12-26T07:26:46.902Z,25.57
2022-12-26T07:29:17.018Z,25.63
2022-12-26T07:31:44.724Z,25.17
2022-12-26T07:34:15.493Z,23.93
2022-12-26T07:36:46.602Z,23.33
2022-12-26T07:39:14.940Z,24.33
2022-12-26T07:42:03.578Z,24.47
2022-12-26T07:44:33.201Z,25.87
2022-12-26T07:47:03.235Z,25.83
2022-12-26T07:49:32.917Z,26.20
2022-12-26T07:52:00.281Z,27.30
2022-12-26T07:54:28.871Z,26.70
2022-12-26T07:57:15.035Z,26.63
2022-12-26T07:59:44.166Z,25.77
2022-12-26T08:02:11.791Z,24.10
2022-12-26T08:04:39.110Z,27.03
2022-12-26T08:07:13.581Z,26.93
2022-12-26T08:09:45.090Z,25.27
2022-12-26T08:12:13.158Z,26.30
2022-12-26T08:14:41.146Z,24.67
2022-12-26T08:17:08.703Z,28.57
2022-12-26T08:19:35.773Z,26.37
2022-12-26T08:22:03.994Z,25.37
2022-12-26T08:24:31.143Z,26.10
2022-12-26T08:26:58.238Z,26.33
2022-12-26T08:29:25.128Z,26.67
2022-12-26T08:31:52.421Z,27.27
2022-12-26T08:34:19.409Z,24.97
2022-12-26T08:36:46.752Z,23.17
2022-12-26T08:39:13.629Z,25.20
2022-12-26T08:41:40.581Z,22.87
2022-12-26T08:44:26.955Z,26.47
2022-12-26T08:46:54.411Z,27.40
2022-12-26T08:49:21.298Z,26.47
2022-12-26T08:51:48.375Z,26.90
2022-12-26T08:54:18.080Z,25.87
2022-12-26T08:56:45.220Z,25.97
2022-12-26T08:59:16.623Z,23.93
2022-12-26T09:01:43.809Z,26.53
2022-12-26T09:04:10.880Z,26.37
2022-12-26T09:06:39.535Z,26.20
2022-12-26T09:09:08.619Z,26.03
2022-12-26T09:11:35.615Z,26.53
2022-12-26T09:14:04.772Z,26.00
2022-12-26T09:16:49.155Z,25.73
2022-12-26T09:19:18.245Z,28.27
2022-12-26T09:21:46.511Z,27.33
2022-12-26T09:24:16.930Z,26.97
2022-12-26T09:26:44.844Z,26.43
2022-12-26T09:29:14.903Z,24.73
2022-12-26T09:31:42.367Z,26.20
2022-12-26T09:34:09.601Z,27.97
2022-12-26T09:36:38.726Z,26.83
2022-12-26T09:39:06.278Z,25.37
2022-12-26T09:42:07.400Z,27.07
2022-12-26T09:45:00.768Z,27.97
2022-12-26T09:47:32.342Z,25.97
2022-12-26T09:50:25.332Z,28.60
2022-12-26T09:53:03.549Z,30.13
2022-12-26T09:55:53.819Z,30.77
2022-12-26T09:58:31.365Z,27.23
2022-12-26T10:01:22.195Z,28.00
2022-12-26T10:04:01.292Z,29.23
2022-12-26T10:06:42.131Z,27.63
2022-12-26T10:09:45.332Z,28.43
2022-12-26T10:12:37.353Z,31.07
2022-12-26T10:15:16.370Z,31.20
2022-12-26T10:18:32.679Z,32.60
2022-12-26T10:21:34.419Z,32.30
2022-12-26T10:24:16.020Z,29.57
2022-12-26T10:26:57.522Z,30.53
2022-12-26T10:30:14.172Z,33.63
2022-12-26T10:32:49.186Z,30.30
2022-12-26T10:35:35.329Z,29.10
2022-12-26T10:38:52.065Z,30.27
2022-12-26T10:41:36.702Z,31.20
2022-12-26T10:44:27.557Z,27.20
2022-12-26T10:47:29.368Z,31.40
2022-12-26T10:50:05.773Z,28.73
2022-12-26T10:52:43.433Z,30.50
2022-12-26T10:55:38.791Z,29.47
2022-12-26T10:58:48.635Z,30.00
2022-12-26T11:01:49.817Z,30.43
2022-12-26T11:08:12.350Z,31.50
2022-12-26T11:11:06.081Z,29.97
2022-12-26T11:13:57.644Z,32.77
2022-12-26T11:16:39.242Z,29.10
2022-12-26T11:19:30.319Z,29.97
2022-12-26T11:22:29.223Z,26.93
2022-12-26T11:25:35.379Z,29.70
2022-12-26T11:28:30.002Z,29.20
2022-12-26T11:31:00.637Z,29.73
2022-12-26T11:33:32.333Z,30.57
2022-12-26T11:36:14.575Z,30.63
2022-12-26T11:38:58.428Z,27.80
2022-12-26T11:41:39.838Z,31.93
2022-12-26T11:44:29.489Z,30.63
2022-12-26T11:47:04.527Z,29.73
2022-12-26T11:49:39.828Z,28.80
2022-12-26T11:52:38.473Z,25.80
2022-12-26T11:55:27.304Z,23.63
2022-12-26T11:58:17.999Z,24.67
2022-12-26T12:01:06.506Z,23.03
2022-12-26T12:03:54.714Z,24.13
2022-12-26T12:06:51.127Z,19.17
2022-12-26T12:10:14.933Z,20.30
2022-12-26T12:13:16.939Z,19.83
2022-12-26T12:16:31.615Z,19.57
2022-12-26T12:19:49.412Z,20.53
2022-12-26T12:23:09.160Z,14.97
2022-12-26T12:26:23.013Z,19.77
2022-12-26T12:29:58.966Z,16.43
2022-12-26T12:33:02.446Z,16.47
2022-12-26T12:35:44.676Z,19.07
2022-12-26T12:38:54.733Z,18.47
2022-12-26T12:42:08.162Z,18.50
2022-12-26T12:45:18.590Z,17.60
2022-12-26T12:48:06.739Z,17.73
2022-12-26T12:51:18.734Z,18.60
2022-12-26T12:54:38.680Z,18.00
2022-12-26T12:57:33.062Z,18.03
2022-12-26T13:00:13.354Z,21.00
2022-12-26T13:03:05.036Z,17.50
2022-12-26T13:05:48.380Z,18.60
2022-12-26T13:08:24.273Z,21.00
2022-12-26T13:10:55.971Z,20.03
2022-12-26T13:13:32.217Z,19.20
2022-12-26T13:16:14.574Z,21.70
2022-12-26T13:18:58.942Z,19.70
2022-12-26T13:21:27.549Z,20.70
2022-12-26T13:24:24.775Z,19.80
2022-12-26T13:26:54.700Z,18.47
2022-12-26T13:29:42.713Z,17.70
2022-12-26T13:32:22.266Z,17.17
2022-12-26T13:34:50.610Z,19.97
2022-12-26T13:37:38.815Z,18.07
2022-12-26T13:40:21.595Z,20.07
2022-12-26T13:43:22.046Z,19.30
2022-12-26T13:45:58.102Z,16.83
2022-12-26T13:48:32.941Z,15.67
2022-12-26T13:51:07.539Z,14.33
2022-12-26T13:53:43.207Z,17.10
2022-12-26T13:57:11.588Z,14.23
2022-12-26T14:00:35.253Z,16.50
2022-12-26T14:03:19.267Z,15.20
2022-12-26T14:05:55.988Z,15.13
2022-12-26T14:08:55.448Z,15.93
2022-12-26T14:12:24.695Z,15.43
2022-12-26T14:15:25.726Z,13.97
2022-12-26T14:18:08.764Z,13.30
2022-12-26T14:20:39.532Z,16.10
2022-12-26T14:23:18.694Z,16.60
2022-12-26T14:25:58.737Z,17.43
2022-12-26T14:28:49.511Z,16.60
2022-12-26T14:31:37.653Z,14.70
2022-12-26T14:34:31.893Z,13.97
2022-12-26T14:37:04.423Z,15.97
2022-12-26T14:39:43.961Z,16.57
2022-12-26T14:42:40.098Z,15.87
2022-12-26T14:45:35.031Z,17.23
2022-12-26T14:48:10.814Z,17.07
2022-12-26T14:51:23.758Z,18.60
2022-12-26T14:54:27.745Z,16.90
2022-12-26T14:56:55.824Z,18.07
2022-12-26T15:00:36.259Z,17.37
2022-12-26T15:03:08.637Z,19.30
2022-12-26T15:05:39.068Z,20.27
2022-12-26T15:08:09.896Z,21.67
2022-12-26T15:11:02.143Z,19.00
2022-12-26T15:14:06.027Z,20.53
2022-12-26T15:16:57.336Z,19.97
2022-12-26T15:19:32.835Z,21.33
2022-12-26T15:22:26.424Z,21.40
2022-12-26T15:25:19.538Z,24.67
2022-12-26T15:28:15.627Z,25.97
2022-12-26T15:30:52.226Z,22.43
2022-12-26T15:33:30.745Z,21.80
2022-12-26T15:36:34.994Z,23.20
2022-12-26T15:39:16.791Z,22.40
2022-12-26T15:42:09.868Z,21.73
2022-12-26T15:44:48.838Z,21.40
2022-12-26T15:47:38.632Z,21.20
2022-12-26T15:50:32.533Z,23.77
2022-12-26T15:52:59.399Z,21.63
2022-12-26T15:55:44.961Z,23.37
2022-12-26T15:58:42.005Z,22.90
2022-12-26T16:01:12.251Z,22.50
2022-12-26T16:03:54.443Z,21.93
2022-12-26T16:06:41.925Z,22.07
2022-12-26T16:09:35.022Z,23.37
2022-12-26T16:12:02.554Z,26.40
2022-12-26T16:14:39.701Z,22.67
2022-12-26T16:17:18.216Z,23.43
2022-12-26T16:19:54.656Z,24.60
2022-12-26T16:22:49.861Z,24.27
2022-12-26T16:25:21.701Z,20.83
2022-12-26T16:27:52.386Z,25.17
2022-12-26T16:30:26.334Z,22.30
2022-12-26T16:32:54.890Z,22.80
2022-12-26T16:35:29.905Z,23.60
2022-12-26T16:37:59.118Z,24.57
2022-12-26T16:40:29.524Z,23.93
2022-12-26T16:43:06.394Z,24.67
2022-12-26T16:45:39.155Z,24.00
2022-12-26T16:48:09.108Z,22.83
2022-12-26T16:50:48.122Z,21.57
2022-12-26T16:53:22.139Z,23.10
2022-12-26T16:55:51.915Z,22.00
2022-12-26T16:58:31.166Z,19.23
2022-12-26T17:01:07.300Z,19.77
2022-12-26T17:03:40.353Z,18.83
2022-12-26T17:06:14.867Z,20.53
2022-12-26T17:08:45.486Z,15.07
2022-12-26T17:11:12.902Z,17.33
2022-12-26T17:13:40.718Z,18.47
2022-12-26T17:16:11.559Z,14.43
2022-12-26T17:18:48.950Z,14.73
2022-12-26T17:21:19.438Z,18.10
2022-12-26T17:24:11.565Z,17.53
2022-12-26T17:26:41.100Z,15.57
2022-12-26T17:29:37.154Z,18.53
2022-12-26T17:32:08.838Z,19.77
2022-12-26T17:34:39.915Z,22.20
2022-12-26T17:37:30.749Z,20.47
2022-12-26T17:40:06.991Z,19.27
2022-12-26T17:42:50.098Z,21.40
2022-12-26T17:45:34.908Z,20.07
2022-12-26T17:48:01.742Z,20.93
2022-12-26T17:50:37.711Z,17.90
2022-12-26T17:53:06.199Z,20.33
2022-12-26T17:55:33.852Z,21.70
2022-12-26T17:58:00.699Z,22.57
2022-12-26T18:00:28.855Z,20.53
2022-12-26T18:02:56.693Z,24.20
2022-12-26T18:05:23.849Z,23.80
2022-12-26T18:07:52.341Z,22.23
2022-12-26T18:10:24.909Z,21.67
2022-12-26T18:12:52.852Z,21.83
2022-12-26T18:15:20.919Z,24.33
2022-12-26T18:17:50.448Z,24.77
2022-12-26T18:20:25.036Z,20.00
2022-12-26T18:22:52.830Z,25.83
2022-12-26T18:25:22.657Z,24.83
2022-12-26T18:27:50.352Z,23.33
2022-12-26T18:30:23.659Z,20.57
2022-12-26T18:32:52.208Z,25.83
2022-12-26T18:35:19.881Z,24.43
2022-12-26T18:37:52.775Z,25.17
2022-12-26T18:40:29.054Z,25.40
2022-12-26T18:42:56.249Z,23.60
2022-12-26T18:45:23.323Z,23.77
2022-12-26T18:47:50.563Z,23.50
2022-12-26T18:50:17.808Z,22.07
2022-12-26T18:52:47.524Z,25.27
2022-12-26T18:55:18.674Z,23.80
2022-12-26T18:57:45.667Z,24.33
2022-12-26T19:00:18.000Z,20.23
2022-12-26T19:02:47.475Z,21.63
2022-12-26T19:05:21.072Z,22.60
2022-12-26T19:07:50.283Z,18.93
2022-12-26T19:10:22.187Z,22.37
2022-12-26T19:12:49.180Z,20.70
2022-12-26T19:15:16.428Z,20.47
2022-12-26T19:17:46.276Z,18.27
2022-12-26T19:20:22.126Z,19.97
2022-12-26T19:22:49.693Z,21.27
2022-12-26T19:25:18.055Z,20.90
2022-12-26T19:27:45.957Z,20.03
2022-12-26T19:30:14.021Z,23.17
2022-12-26T19:32:41.204Z,22.77
2022-12-26T19:35:08.381Z,23.30
2022-12-26T19:37:35.330Z,21.23
2022-12-26T19:40:02.938Z,22.37
2022-12-26T19:42:29.924Z,22.10
2022-12-26T19:44:56.887Z,22.53
2022-12-26T19:47:23.795Z,21.20
2022-12-26T19:49:50.753Z,23.13
2022-12-26T19:52:17.775Z,23.13
2022-12-26T19:54:44.770Z,24.77
2022-12-26T19:57:11.625Z,25.27
2022-12-26T19:59:38.677Z,22.50
2022-12-26T20:02:05.622Z,23.07
2022-12-26T20:04:35.350Z,25.57
2022-12-26T20:07:02.240Z,25.47
2022-12-26T20:09:29.303Z,20.67
2022-12-26T20:11:56.893Z,21.43
2022-12-26T20:14:26.312Z,22.87
2022-12-26T20:17:05.684Z,22.17
2022-12-26T20:19:33.539Z,21.77
2022-12-26T20:22:00.456Z,21.47
2022-12-26T20:24:27.381Z,21.77
2022-12-26T20:26:54.591Z,21.30
2022-12-26T20:29:21.558Z,20.17
2022-12-26T20:31:49.500Z,19.30
2022-12-26T20:34:16.638Z,20.60
2022-12-26T20:36:43.699Z,20.07
2022-12-26T20:39:14.355Z,20.60
2022-12-26T20:41:41.714Z,22.50
2022-12-26T20:44:08.897Z,17.37
2022-12-26T20:46:36.564Z,19.73
2022-12-26T20:49:05.874Z,19.87
2022-12-26T20:51:38.458Z,20.20
2022-12-26T20:54:07.963Z,18.93
2022-12-26T20:56:36.444Z,20.67
2022-12-26T20:59:04.371Z,18.87
2022-12-26T21:01:34.035Z,20.47
2022-12-26T21:04:01.818Z,18.10
2022-12-26T21:06:31.377Z,20.30
2022-12-26T21:08:58.474Z,21.93
2022-12-26T21:11:31.461Z,19.43
2022-12-26T21:14:02.379Z,18.83
2022-12-26T21:16:35.321Z,18.00
2022-12-26T21:19:03.219Z,20.00
2022-12-26T21:21:33.258Z,18.27
2022-12-26T21:24:03.045Z,17.57
2022-12-26T21:26:31.168Z,18.60
2022-12-26T21:29:00.260Z,20.63
2022-12-26T21:31:31.831Z,18.60
2022-12-26T21:34:01.146Z,19.50
2022-12-26T21:36:29.530Z,18.53
2022-12-26T21:38:57.899Z,17.20
2022-12-26T21:41:26.163Z,19.70
2022-12-26T21:43:58.358Z,19.43
2022-12-26T21:46:25.491Z,19.70
2022-12-26T21:48:54.954Z,18.00
2022-12-26T21:51:27.179Z,18.60
2022-12-26T21:54:26.129Z,18.37
2022-12-26T21:56:56.080Z,17.17
2022-12-26T21:59:45.133Z,17.47
2022-12-26T22:02:34.079Z,20.10
2022-12-26T22:05:13.059Z,17.90
2022-12-26T22:07:48.317Z,20.37
2022-12-26T22:10:36.155Z,20.10
2022-12-26T22:13:07.199Z,17.67
2022-12-26T22:15:52.564Z,19.33
2022-12-26T22:19:33.896Z,19.37
2022-12-26T22:22:06.523Z,17.80
2022-12-26T22:24:43.302Z,17.37
2022-12-26T22:27:19.171Z,20.50
2022-12-26T22:29:46.587Z,19.83
2022-12-26T22:32:16.596Z,19.27
2022-12-26T22:34:43.793Z,19.93
2022-12-26T22:37:10.742Z,20.33
2022-12-26T22:39:37.861Z,16.63
2022-12-26T22:42:05.188Z,18.67
2022-12-26T22:44:34.876Z,20.77
2022-12-26T22:47:05.140Z,18.00
2022-12-26T22:49:35.278Z,17.37
2022-12-26T22:52:02.777Z,18.40
2022-12-26T22:54:30.073Z,17.03
2022-12-26T22:56:59.962Z,20.03
2022-12-26T22:59:57.856Z,17.53
2022-12-26T23:02:20.036Z,21.87
2022-12-26T23:04:56.254Z,20.30
2022-12-26T23:07:23.496Z,20.63
2022-12-26T23:09:50.947Z,18.83
2022-12-26T23:12:36.502Z,21.27
2022-12-26T23:15:06.531Z,20.87
2022-12-26T23:17:57.000Z,21.33
2022-12-26T23:20:45.025Z,19.90
2022-12-26T23:23:16.925Z,22.23
2022-12-26T23:25:43.860Z,21.07
2022-12-26T23:28:29.124Z,19.53
2022-12-26T23:30:57.252Z,21.57
2022-12-26T23:33:30.857Z,20.03
2022-12-26T23:35:58.772Z,20.00
2022-12-26T23:38:26.120Z,20.00
2022-12-26T23:40:53.064Z,21.50
2022-12-26T23:43:20.588Z,23.33
2022-12-26T23:45:47.615Z,20.87
2022-12-26T23:48:14.661Z,22.07
2022-12-26T23:50:41.976Z,21.00
2022-12-26T23:53:09.294Z,20.37
2022-12-26T23:55:41.794Z,20.70
2022-12-26T23:58:16.206Z,20.23
